Terminal Aerodrome Forecast
Issued by NWS

Home | Current Version | Previous Version | Text Only | Print | Product List | Glossary On
Versions: 1 2 3 4 5 6 7 8 9 10 11 12 13 14 15 16 17 18 19 20 21 22 23 24 25 26 27 28 29
000
FTUS41 KBUF 240800 AAA
TAFJHW
TAF AMD
KJHW 240828Z 2408/2506 29006KT 2SM BR BKN003
     FM241300 28005KT P6SM SCT250
     FM241500 29009KT P6SM SCT200
     FM250000 26006KT P6SM SCT050
     FM250500 23005KT P6SM BKN035
      AMD LTD TO CLD VIS AND WIND=

USA.gov is the U.S. government's official web portal to all federal, state and local government web resources and services.